Time;durP1;ratioP1;P1;durP2;ratioP2;P2;SDS_P1;SDS_P2;PMS_P1;PMS_P2;Temp;Humidity;BMP_temperature;BMP_pressure;BME280_temperature;BME280_humidity;BME280_pressure;Samples;Min_cycle;Max_cycle;Signal;HPM_P1;HPM_P2
2021/07/10 00:02:46;;;;;;;10.85;5.18;;;13.40;99.90;;;;;;6232972;28;20033;-84
2021/07/10 00:05:47;;;;;;;7.30;4.93;;;13.40;99.90;;;;;;6233335;28;20033;-85
2021/07/10 00:08:48;;;;;;;5.70;4.95;;;13.30;99.90;;;;;;6233029;28;20115;-86
2021/07/10 00:11:48;;;;;;;6.35;4.80;;;13.20;99.90;;;;;;6216774;28;20502;-87
2021/07/10 00:14:49;;;;;;;6.30;4.70;;;13.10;99.90;;;;;;6216455;28;20114;-86
2021/07/10 00:17:50;;;;;;;5.03;4.53;;;13.10;99.90;;;;;;6249402;28;20090;-87
2021/07/10 00:20:50;;;;;;;7.10;4.88;;;13.10;99.90;;;;;;6234941;28;20528;-87
2021/07/10 00:23:51;;;;;;;6.15;4.40;;;13.10;99.90;;;;;;6237304;28;20470;-86
2021/07/10 00:26:52;;;;;;;5.88;5.03;;;13.10;99.90;;;;;;6221149;28;20060;-86
2021/07/10 00:29:52;;;;;;;7.20;4.15;;;13.00;99.90;;;;;;6237276;28;20140;-87
2021/07/10 00:32:53;;;;;;;6.03;4.57;;;13.00;99.90;;;;;;6236956;28;20398;-86
2021/07/10 00:35:53;;;;;;;5.45;4.60;;;13.00;99.90;;;;;;6236992;28;20036;-85
2021/07/10 00:38:56;;;;;;;7.70;5.20;;;13.00;99.90;;;;;;6236819;28;20385;-86
2021/07/10 00:41:57;;;;;;;;;;;13.00;99.90;;;;;;6238188;28;20032;-87
2021/07/10 00:44:57;;;;;;;5.55;4.68;;;13.00;99.90;;;;;;6269867;28;20368;-86
2021/07/10 00:47:58;;;;;;;6.97;4.40;;;13.00;99.90;;;;;;6220684;28;20520;-87
2021/07/10 00:50:58;;;;;;;11.63;4.65;;;13.00;99.90;;;;;;6236736;28;20474;-87
2021/07/10 00:53:59;;;;;;;5.47;4.50;;;13.00;99.90;;;;;;6236458;28;20041;-86
2021/07/10 00:57:00;;;;;;;9.43;4.75;;;13.00;99.90;;;;;;6236919;28;20382;-86
2021/07/10 01:00:09;;;;;;;12.80;5.18;;;13.10;99.90;;;;;;6240522;28;20025;-86
2021/07/10 01:03:10;;;;;;;5.63;5.03;;;13.00;99.90;;;;;;6257569;28;20067;-87
2021/07/10 01:06:11;;;;;;;7.15;5.35;;;13.00;99.90;;;;;;6237040;28;20973;-88
2021/07/10 01:09:11;;;;;;;6.15;4.68;;;13.00;99.90;;;;;;6238240;28;20028;-86
2021/07/10 01:12:12;;;;;;;6.38;4.93;;;13.00;99.90;;;;;;6238525;28;20057;-86
2021/07/10 01:15:14;;;;;;;5.80;4.93;;;13.00;99.90;;;;;;6253219;28;20047;-87
2021/07/10 01:18:14;;;;;;;6.60;5.00;;;13.00;99.90;;;;;;6236118;28;20029;-87
2021/07/10 01:21:15;;;;;;;11.25;5.75;;;12.90;99.90;;;;;;6236038;28;20038;-86
2021/07/10 01:24:15;;;;;;;6.65;5.28;;;12.90;99.90;;;;;;6235876;28;20029;-87
2021/07/10 01:27:16;;;;;;;8.00;5.40;;;12.90;99.90;;;;;;6235930;28;20488;-85
2021/07/10 01:30:20;;;;;;;5.70;5.10;;;12.90;99.90;;;;;;6235604;28;20052;-85
2021/07/10 01:33:20;;;;;;;10.10;6.03;;;12.80;99.90;;;;;;6235320;28;20114;-84
2021/07/10 01:36:21;;;;;;;9.55;5.55;;;12.80;99.90;;;;;;6219461;28;20036;-85
2021/07/10 01:39:21;;;;;;;6.57;5.30;;;12.70;99.90;;;;;;6219493;28;20029;-86
2021/07/10 01:42:22;;;;;;;10.45;6.15;;;12.70;99.90;;;;;;6235684;28;20450;-85
2021/07/10 01:45:23;;;;;;;8.68;5.65;;;12.60;99.90;;;;;;6251649;28;20123;-85
2021/07/10 01:48:24;;;;;;;8.73;5.75;;;12.70;99.90;;;;;;6235230;28;20042;-86
2021/07/10 01:51:24;;;;;;;6.03;5.43;;;12.70;99.90;;;;;;6235003;28;20471;-85
2021/07/10 01:54:25;;;;;;;6.47;5.35;;;12.80;99.90;;;;;;6235160;28;20509;-85
2021/07/10 01:57:25;;;;;;;6.28;5.68;;;12.80;99.90;;;;;;6240644;28;20055;-84
2021/07/10 02:00:35;;;;;;;7.57;5.35;;;12.80;99.90;;;;;;6234998;28;20492;-86
2021/07/10 02:03:36;;;;;;;5.90;5.25;;;12.90;99.90;;;;;;6234733;28;20029;-85
2021/07/10 02:06:36;;;;;;;6.53;5.88;;;12.80;99.90;;;;;;6234624;28;20513;-86
2021/07/10 02:09:37;;;;;;;6.68;5.75;;;12.80;99.90;;;;;;6234797;28;20025;-85
2021/07/10 02:12:42;;;;;;;8.75;5.38;;;12.70;99.90;;;;;;6234422;28;20052;-85
2021/07/10 02:15:42;;;;;;;7.40;4.72;;;12.70;99.90;;;;;;6218995;28;20033;-86
2021/07/10 02:18:43;;;;;;;6.32;5.72;;;12.70;99.90;;;;;;6234331;28;20033;-86
2021/07/10 02:21:43;;;;;;;6.85;5.20;;;12.70;99.90;;;;;;6234714;28;20029;-85
2021/07/10 02:24:44;;;;;;;10.10;5.97;;;12.70;99.90;;;;;;6234506;28;20025;-85
2021/07/10 02:27:45;;;;;;;8.32;6.50;;;12.70;99.90;;;;;;6251154;28;20025;-85
2021/07/10 02:30:46;;;;;;;9.90;6.85;;;12.60;99.90;;;;;;6218025;28;20450;-85
2021/07/10 02:33:46;;;;;;;8.13;6.13;;;12.60;99.90;;;;;;6233944;28;20809;-86
2021/07/10 02:36:47;;;;;;;7.65;6.32;;;12.50;99.90;;;;;;6250597;28;20116;-86
2021/07/10 02:39:47;;;;;;;10.65;6.80;;;12.50;99.90;;;;;;6234071;28;20074;-86
2021/07/10 02:42:48;;;;;;;9.45;6.78;;;12.50;99.90;;;;;;6233922;28;20035;-86
2021/07/10 02:45:49;;;;;;;7.13;6.43;;;12.50;99.90;;;;;;6233786;28;20504;-87
2021/07/10 02:48:50;;;;;;;7.55;6.75;;;12.60;99.90;;;;;;6233742;28;20036;-85
2021/07/10 02:51:50;;;;;;;7.97;6.18;;;12.60;99.90;;;;;;6234014;28;20033;-86
2021/07/10 02:54:51;;;;;;;7.97;7.18;;;12.70;99.90;;;;;;6234021;28;20471;-86
2021/07/10 02:57:51;;;;;;;7.03;6.20;;;12.70;99.90;;;;;;6233760;28;20074;-84
2021/07/10 03:00:52;;;;;;;7.57;6.10;;;12.70;99.90;;;;;;6233596;28;20035;-85
2021/07/10 03:03:52;;;;;;;8.27;6.68;;;12.70;99.90;;;;;;6234126;28;20066;-85
2021/07/10 03:06:53;;;;;;;8.98;7.03;;;12.70;99.90;;;;;;6217744;28;20064;-85
2021/07/10 03:09:54;;;;;;;8.65;6.90;;;12.80;99.90;;;;;;6217513;28;20059;-87
2021/07/10 03:12:58;;;;;;;8.68;6.07;;;12.40;99.90;;;;;;6216804;28;20398;-87
2021/07/10 03:15:58;;;;;;;9.10;6.28;;;12.80;99.90;;;;;;6234052;28;20033;-86
2021/07/10 03:18:59;;;;;;;7.18;6.57;;;12.70;99.90;;;;;;6233410;28;20394;-87
2021/07/10 03:21:59;;;;;;;9.07;6.18;;;12.70;99.90;;;;;;6233685;28;20059;-84
2021/07/10 03:25:04;;;;;;;7.18;6.50;;;12.70;99.90;;;;;;6233515;28;20459;-84
2021/07/10 03:28:05;;;;;;;9.75;6.70;;;12.70;99.90;;;;;;6216906;28;20036;-86
2021/07/10 03:31:05;;;;;;;6.65;6.05;;;12.70;99.90;;;;;;6233371;28;20028;-88
2021/07/10 03:34:06;;;;;;;8.32;6.97;;;12.70;99.90;;;;;;6217360;28;20041;-86
2021/07/10 03:37:07;;;;;;;7.32;6.22;;;12.80;99.90;;;;;;6233305;28;20035;-86
2021/07/10 03:40:09;;;;;;;6.65;5.88;;;12.80;99.90;;;;;;6233298;28;20025;-85
2021/07/10 03:43:10;;;;;;;;;;;12.80;99.90;;;;;;6217764;28;20512;-86
2021/07/10 03:46:10;;;;;;;7.50;6.70;;;12.70;99.90;;;;;;6266003;28;19954;-85
2021/07/10 03:49:11;;;;;;;7.85;6.38;;;12.70;99.90;;;;;;6233635;28;20486;-85
2021/07/10 03:52:12;;;;;;;8.40;6.75;;;12.70;99.90;;;;;;6233139;28;20029;-86
2021/07/10 03:55:13;;;;;;;7.20;6.50;;;12.80;99.90;;;;;;6233734;28;20045;-87
2021/07/10 03:58:13;;;;;;;8.15;6.63;;;12.80;99.90;;;;;;6237816;28;20037;-87
2021/07/10 04:01:14;;;;;;;6.53;5.93;;;12.90;99.90;;;;;;6238056;28;20032;-86
2021/07/10 04:04:15;;;;;;;7.95;6.13;;;12.90;99.90;;;;;;6237625;28;20123;-85
2021/07/10 04:07:15;;;;;;;7.47;6.13;;;12.80;99.90;;;;;;6237567;28;20039;-87
2021/07/10 04:10:16;;;;;;;6.35;5.75;;;12.80;99.90;;;;;;6239190;28;20033;-86
2021/07/10 04:13:17;;;;;;;8.15;6.50;;;12.80;99.90;;;;;;6234858;28;20059;-86
2021/07/10 04:16:17;;;;;;;8.48;5.75;;;12.90;99.90;;;;;;6221187;28;20037;-86
2021/07/10 04:19:18;;;;;;;6.35;5.75;;;13.20;99.90;;;;;;6237239;28;20534;-87
2021/07/10 04:22:18;;;;;;;7.22;5.75;;;13.60;99.90;;;;;;6237194;28;20029;-85
2021/07/10 04:25:19;;;;;;;7.55;6.43;;;13.90;99.90;;;;;;6237370;28;20081;-85
2021/07/10 04:28:20;;;;;;;6.20;5.60;;;14.30;99.90;;;;;;6237518;28;20029;-87
2021/07/10 04:31:20;;;;;;;13.13;5.65;;;14.60;99.90;;;;;;6237167;28;20036;-85
2021/07/10 04:34:21;;;;;;;6.70;5.82;;;14.80;99.90;;;;;;6237350;28;20041;-85
2021/07/10 04:37:22;;;;;;;6.03;5.43;;;15.00;99.90;;;;;;6221170;28;20017;-85
2021/07/10 04:40:22;;;;;;;6.97;6.18;;;15.00;99.90;;;;;;6237269;28;20033;-86
2021/07/10 04:43:23;;;;;;;7.05;6.13;;;15.00;99.90;;;;;;6220731;28;20182;-86
2021/07/10 04:46:23;;;;;;;6.88;6.13;;;15.00;99.90;;;;;;6236656;28;20033;-87
2021/07/10 04:49:24;;;;;;;7.00;5.95;;;14.80;99.90;;;;;;6237147;28;20371;-86
2021/07/10 04:52:25;;;;;;;6.95;6.25;;;14.70;99.90;;;;;;6236539;28;20371;-85
2021/07/10 04:55:25;;;;;;;7.47;6.70;;;14.60;99.90;;;;;;6236398;28;20040;-86
2021/07/10 04:58:26;;;;;;;7.10;6.18;;;14.40;99.90;;;;;;6219963;28;20025;-86
2021/07/10 05:01:27;;;;;;;8.35;5.97;;;14.30;99.90;;;;;;6236903;28;20391;-87
2021/07/10 05:04:27;;;;;;;7.28;6.00;;;14.30;99.90;;;;;;6220209;28;20029;-86
2021/07/10 05:07:30;;;;;;;6.60;6.00;;;14.50;99.90;;;;;;6235923;28;20466;-86
2021/07/10 05:10:31;;;;;;;8.15;6.35;;;14.90;99.90;;;;;;6220256;28;20025;-87
2021/07/10 05:13:32;;;;;;;10.15;6.30;;;15.30;99.90;;;;;;6219462;28;20064;-86
2021/07/10 05:16:32;;;;;;;6.57;5.97;;;15.90;99.90;;;;;;6236117;28;20039;-85
2021/07/10 05:19:33;;;;;;;6.90;5.72;;;16.60;99.90;;;;;;6236007;28;20029;-87
2021/07/10 05:22:34;;;;;;;8.27;5.57;;;17.30;99.90;;;;;;6236260;28;20394;-85
2021/07/10 05:25:34;;;;;;;6.32;5.53;;;17.70;99.90;;;;;;6236078;28;20029;-87
2021/07/10 05:28:35;;;;;;;6.32;5.60;;;18.10;99.90;;;;;;6236000;28;20070;-88
2021/07/10 05:31:36;;;;;;;8.60;5.90;;;18.20;99.90;;;;;;6235749;28;20025;-85
2021/07/10 05:34:37;;;;;;;7.30;5.50;;;18.20;99.90;;;;;;6235518;28;20037;-85
2021/07/10 05:37:37;;;;;;;6.03;5.22;;;18.20;99.90;;;;;;6235572;28;20111;-87
2021/07/10 05:40:38;;;;;;;5.93;5.25;;;18.30;99.90;;;;;;6235950;28;20113;-86
2021/07/10 05:43:38;;;;;;;5.75;5.18;;;18.70;99.90;;;;;;6235823;28;20085;-85
2021/07/10 05:46:39;;;;;;;6.70;4.72;;;18.90;99.90;;;;;;6235066;28;20047;-86
2021/07/10 05:49:40;;;;;;;5.40;4.82;;;19.30;99.90;;;;;;6235308;28;20040;-86
2021/07/10 05:52:40;;;;;;;6.10;4.53;;;19.80;99.90;;;;;;6235194;28;20540;-87
2021/07/10 05:55:41;;;;;;;5.95;5.32;;;20.20;99.90;;;;;;6235421;28;20021;-88
2021/07/10 05:58:41;;;;;;;7.32;5.50;;;20.50;99.90;;;;;;6219377;28;20060;-87
2021/07/10 06:01:42;;;;;;;5.72;4.82;;;20.80;98.70;;;;;;6219110;28;20486;-86
2021/07/10 06:04:43;;;;;;;5.55;4.68;;;20.90;98.00;;;;;;6235638;28;20032;-87
2021/07/10 06:07:43;;;;;;;8.32;4.55;;;21.20;98.20;;;;;;6234845;28;20036;-85
2021/07/10 06:10:44;;;;;;;5.75;5.22;;;21.40;98.20;;;;;;6234698;28;20031;-84
2021/07/10 06:13:45;;;;;;;5.75;4.97;;;21.80;98.10;;;;;;6234792;28;20063;-83
2021/07/10 06:16:45;;;;;;;7.00;5.28;;;22.10;96.70;;;;;;6218643;28;20029;-87
2021/07/10 06:19:46;;;;;;;5.75;5.15;;;22.50;96.40;;;;;;6235554;28;20021;-88
2021/07/10 06:22:47;;;;;;;5.93;4.90;;;22.50;95.40;;;;;;6235654;28;20454;-88
2021/07/10 06:25:48;;;;;;;8.00;4.70;;;22.70;94.60;;;;;;6245616;28;20029;-88
2021/07/10 06:28:50;;;;;;;5.13;4.63;;;22.90;94.20;;;;;;6235077;28;20060;-88
2021/07/10 06:31:50;;;;;;;5.93;4.38;;;23.30;93.70;;;;;;6252041;28;20021;-88
2021/07/10 06:34:51;;;;;;;4.50;4.10;;;24.00;92.80;;;;;;6235015;28;20520;-89
2021/07/10 06:37:51;;;;;;;4.82;3.97;;;24.40;91.80;;;;;;6219035;28;20589;-87
2021/07/10 06:40:52;;;;;;;5.20;4.20;;;24.60;90.40;;;;;;6234975;28;20029;-88
2021/07/10 06:43:56;;;;;;;9.13;3.85;;;25.00;88.90;;;;;;6235229;28;20339;-90
2021/07/10 06:47:00;;;;;;;4.60;4.20;;;25.40;87.30;;;;;;6243389;28;20071;-91
2021/07/10 06:50:00;;;;;;;5.05;4.00;;;25.30;86.30;;;;;;6236731;28;20032;-89
2021/07/10 06:53:01;;;;;;;8.73;4.70;;;25.80;85.60;;;;;;6233699;28;20090;-77
2021/07/10 06:56:03;;;;;;;6.30;4.88;;;26.10;84.00;;;;;;6268011;28;20036;-79
2021/07/10 06:59:03;;;;;;;5.50;3.88;;;26.30;82.90;;;;;;6233637;28;20044;-79
2021/07/10 07:02:05;;;;;;;4.40;4.00;;;26.80;84.40;;;;;;6233988;28;20143;-89
2021/07/10 07:05:06;;;;;;;5.38;4.00;;;27.20;78.70;;;;;;6235123;28;20037;-86
2021/07/10 07:08:07;;;;;;;4.68;4.18;;;27.40;77.00;;;;;;6233644;28;20142;-87
2021/07/10 07:11:07;;;;;;;5.57;4.93;;;27.60;75.50;;;;;;6233938;28;20479;-85
2021/07/10 07:14:09;;;;;;;5.10;3.77;;;27.50;74.30;;;;;;6233566;28;20060;-86
2021/07/10 07:17:09;;;;;;;5.65;4.50;;;27.30;70.40;;;;;;6233974;28;20029;-84
2021/07/10 07:20:13;;;;;;;8.60;4.30;;;27.40;74.50;;;;;;6233924;28;20059;-82
2021/07/10 07:23:14;;;;;;;9.90;4.30;;;27.40;74.40;;;;;;6234754;28;20025;-85
2021/07/10 07:26:18;;;;;;;6.88;4.50;;;27.40;76.10;;;;;;6233794;28;20036;-86
2021/07/10 07:29:19;;;;;;;5.05;4.10;;;27.80;75.60;;;;;;6234780;28;20025;-84
2021/07/10 07:32:19;;;;;;;5.60;4.20;;;28.50;73.30;;;;;;6238416;28;20082;-83
2021/07/10 07:35:20;;;;;;;4.73;3.97;;;28.60;72.90;;;;;;6239148;28;20033;-86
2021/07/10 07:38:21;;;;;;;4.40;3.97;;;28.80;70.90;;;;;;6239527;28;20610;-84
2021/07/10 07:41:21;;;;;;;5.40;3.73;;;28.90;70.70;;;;;;6237798;28;20111;-85
2021/07/10 07:44:22;;;;;;;4.03;3.63;;;29.20;69.40;;;;;;6237957;28;20039;-85
2021/07/10 07:47:23;;;;;;;6.80;3.70;;;29.50;67.40;;;;;;6238844;28;20040;-86
2021/07/10 07:50:23;;;;;;;3.53;3.20;;;29.80;65.80;;;;;;6238581;28;20063;-85
2021/07/10 07:53:24;;;;;;;5.07;3.50;;;29.80;61.90;;;;;;6221787;28;20561;-86
2021/07/10 07:56:25;;;;;;;4.03;3.70;;;30.10;61.90;;;;;;6238351;28;20048;-85
2021/07/10 07:59:25;;;;;;;4.72;4.20;;;30.40;63.10;;;;;;6237900;28;20029;-84
2021/07/10 08:02:26;;;;;;;3.97;3.57;;;30.50;60.60;;;;;;6237989;28;20368;-85
2021/07/10 08:05:26;;;;;;;4.13;3.73;;;30.50;60.00;;;;;;6222018;28;20029;-84
2021/07/10 08:08:27;;;;;;;4.20;3.77;;;30.40;59.30;;;;;;6238117;28;20037;-89
2021/07/10 08:11:28;;;;;;;6.53;4.50;;;30.30;61.60;;;;;;6238844;28;20029;-90
2021/07/10 08:14:28;;;;;;;4.53;3.80;;;30.50;61.60;;;;;;6237712;28;20049;-85
2021/07/10 08:17:29;;;;;;;4.13;3.43;;;30.80;61.40;;;;;;6238251;28;20029;-86
2021/07/10 08:20:30;;;;;;;5.60;3.83;;;31.00;60.70;;;;;;6237928;28;20112;-85
2021/07/10 08:23:30;;;;;;;6.17;3.30;;;31.10;61.40;;;;;;6238015;28;20029;-88
2021/07/10 08:26:31;;;;;;;6.00;4.63;;;31.10;59.30;;;;;;6237500;28;20032;-87
2021/07/10 08:29:32;;;;;;;3.97;3.43;;;31.10;60.20;;;;;;6254249;28;20359;-87
2021/07/10 08:32:32;;;;;;;5.07;3.53;;;31.00;60.70;;;;;;6237290;28;20029;-81
2021/07/10 08:35:33;;;;;;;4.43;3.43;;;30.80;60.30;;;;;;6236690;28;20041;-83
2021/07/10 08:38:36;;;;;;;3.67;3.23;;;31.00;60.70;;;;;;6237019;28;20561;-84
2021/07/10 08:41:37;;;;;;;3.90;3.50;;;31.10;61.10;;;;;;6237109;28;20470;-89
2021/07/10 08:44:40;;;;;;;3.97;3.40;;;31.10;59.80;;;;;;6237083;28;20041;-84
2021/07/10 08:47:47;;;;;;;4.43;3.55;;;31.10;62.00;;;;;;6220650;28;20033;-84
2021/07/10 08:50:48;;;;;;;5.60;4.10;;;31.30;61.80;;;;;;6220618;28;20043;-84
2021/07/10 08:53:48;;;;;;;4.40;4.00;;;31.10;61.60;;;;;;6236604;28;20032;-83
2021/07/10 08:56:49;;;;;;;6.57;3.70;;;31.30;61.80;;;;;;6236660;28;20128;-82
2021/07/10 08:59:49;;;;;;;3.93;3.57;;;31.40;63.10;;;;;;6236586;28;20111;-82
2021/07/10 09:02:51;;;;;;;5.30;3.70;;;31.40;62.80;;;;;;6253068;28;20033;-84
2021/07/10 09:05:53;;;;;;;4.45;4.05;;;31.00;62.90;;;;;;6236455;28;20268;-85
2021/07/10 09:08:57;;;;;;;5.43;3.80;;;31.00;63.00;;;;;;6236926;28;20076;-84
2021/07/10 09:11:59;;;;;;;4.47;3.72;;;31.40;64.80;;;;;;6220709;28;20407;-84
2021/07/10 09:15:32;;;;;;;5.15;3.88;;;31.40;63.40;;;;;;6235839;28;20467;-80
2021/07/10 09:18:44;;;;;;;4.82;3.60;;;31.50;63.20;;;;;;6201374;28;20447;-80
2021/07/10 09:21:45;;;;;;;6.07;3.60;;;31.60;63.10;;;;;;6218330;28;20220;-85
2021/07/10 09:24:47;;;;;;;4.77;3.83;;;31.70;63.70;;;;;;6219004;28;20032;-87
2021/07/10 09:27:49;;;;;;;4.78;3.30;;;31.10;62.30;;;;;;6186636;28;20698;-86
2021/07/10 09:30:50;;;;;;;5.03;4.10;;;30.80;62.90;;;;;;6169581;28;20030;-86
2021/07/10 09:34:12;;;;;;;3.93;3.50;;;30.10;63.40;;;;;;6201879;28;20141;-85
2021/07/10 09:37:20;;;;;;;4.93;3.60;;;30.20;64.50;;;;;;6185723;28;20088;-85
2021/07/10 09:40:21;;;;;;;4.47;3.72;;;30.40;64.60;;;;;;6186721;28;20045;-85
2021/07/10 09:43:26;;;;;;;6.33;4.20;;;30.20;63.20;;;;;;6217633;28;20066;-86
2021/07/10 09:46:27;;;;;;;4.95;3.70;;;29.40;63.60;;;;;;6180068;28;20029;-85
2021/07/10 09:57:29;;;;;;;4.15;3.70;;;31.70;68.10;;;;;;6194785;28;20058;-92
2021/07/10 10:00:30;;;;;;;6.10;3.88;;;29.90;65.50;;;;;;6174403;28;20034;-88
2021/07/10 10:03:33;;;;;;;4.10;3.57;;;30.60;63.30;;;;;;6178805;28;20045;-89
2021/07/10 10:06:34;;;;;;;3.88;3.40;;;30.60;64.60;;;;;;6162256;28;20030;-91
2021/07/10 10:09:35;;;;;;;5.78;3.25;;;30.50;62.50;;;;;;6164270;28;20527;-87
2021/07/10 10:12:36;;;;;;;4.40;3.27;;;29.20;62.60;;;;;;6177886;28;20050;-89
2021/07/10 10:15:44;;;;;;;3.90;3.50;;;28.50;66.20;;;;;;6179983;28;20117;-90
2021/07/10 10:18:45;;;;;;;4.93;4.00;;;28.40;67.20;;;;;;6196012;28;20288;-90
2021/07/10 10:21:47;;;;;;;5.50;3.50;;;28.10;68.70;;;;;;6162111;28;20125;-82
2021/07/10 10:24:51;;;;;;;6.05;3.83;;;28.30;72.70;;;;;;6176151;28;20080;-83
2021/07/10 10:27:52;;;;;;;4.03;3.35;;;28.40;69.10;;;;;;6175870;28;20478;-81
2021/07/10 10:30:54;;;;;;;3.93;3.50;;;28.70;67.60;;;;;;6223803;28;20037;-84
2021/07/10 10:33:55;;;;;;;4.43;4.03;;;29.10;68.80;;;;;;6233579;28;20064;-83
2021/07/10 10:36:56;;;;;;;4.10;3.70;;;29.80;68.00;;;;;;6232629;28;20055;-80
2021/07/10 10:39:57;;;;;;;5.05;4.10;;;30.20;65.60;;;;;;6231785;28;20079;-79
2021/07/10 10:42:59;;;;;;;4.30;3.90;;;30.50;67.00;;;;;;6232420;28;20475;-81
2021/07/10 10:46:14;;;;;;;4.35;3.60;;;30.90;64.10;;;;;;6216952;28;20029;-81
2021/07/10 10:49:36;;;;;;;3.92;3.30;;;30.70;63.40;;;;;;6234182;28;20450;-81
2021/07/10 10:52:44;;;;;;;4.15;3.75;;;30.80;64.10;;;;;;6265758;28;20648;-81
2021/07/10 10:55:46;;;;;;;3.80;3.40;;;31.10;62.20;;;;;;6233212;28;20025;-81
2021/07/10 10:58:47;;;;;;;4.43;3.42;;;31.20;60.90;;;;;;6233683;28;20031;-80
2021/07/10 11:01:47;;;;;;;3.43;3.13;;;31.30;62.50;;;;;;6250078;28;20029;-79
2021/07/10 11:04:55;;;;;;;5.67;3.60;;;31.20;59.90;;;;;;6234086;28;20033;-79
2021/07/10 11:08:17;;;;;;;3.90;3.50;;;31.00;60.30;;;;;;6248906;28;20044;-80
2021/07/10 11:11:19;;;;;;;4.00;3.60;;;30.90;61.20;;;;;;6267668;28;20048;-80
2021/07/10 11:14:22;;;;;;;4.13;3.38;;;31.00;60.50;;;;;;6234576;28;20139;-84
2021/07/10 11:17:24;;;;;;;4.20;3.80;;;31.00;61.20;;;;;;6237018;28;20069;-79
2021/07/10 11:20:36;;;;;;;;;;;31.10;61.70;;;;;;6189483;28;20107;-79
2021/07/10 11:23:37;;;;;;;4.45;3.30;;;30.60;62.40;;;;;;6267052;28;20011;-79
2021/07/10 11:26:37;;;;;;;3.90;3.60;;;30.70;62.90;;;;;;6265523;28;20017;-79
2021/07/10 11:29:39;;;;;;;5.40;3.50;;;31.00;64.10;;;;;;6249853;28;20044;-80
2021/07/10 11:32:44;;;;;;;40.90;17.80;;;31.00;63.00;;;;;;6229243;28;20121;-79
2021/07/10 11:35:46;;;;;;;5.40;3.70;;;31.00;63.00;;;;;;6226275;28;20482;-82
2021/07/10 11:38:47;;;;;;;4.68;3.50;;;30.80;63.20;;;;;;6264747;28;20025;-80
2021/07/10 11:41:47;;;;;;;8.30;4.00;;;30.70;63.10;;;;;;6248603;28;20138;-83
2021/07/10 11:44:49;;;;;;;9.00;4.97;;;30.70;62.60;;;;;;6249531;28;20052;-84
2021/07/10 11:47:56;;;;;;;4.50;3.47;;;30.60;64.20;;;;;;6233638;28;20613;-83
2021/07/10 11:51:05;;;;;;;8.27;4.78;;;30.50;62.60;;;;;;6233426;28;20025;-83
2021/07/10 11:54:05;;;;;;;3.80;3.40;;;30.40;65.80;;;;;;6249928;28;20045;-84
2021/07/10 11:57:06;;;;;;;4.23;3.83;;;30.30;65.40;;;;;;6217329;28;20029;-86
2021/07/10 12:00:08;;;;;;;4.88;3.70;;;30.20;65.70;;;;;;6250106;28;20076;-84
2021/07/10 12:03:16;;;;;;;4.35;3.45;;;30.10;65.80;;;;;;6249354;28;20091;-84
2021/07/10 12:06:20;;;;;;;5.00;3.75;;;30.10;66.50;;;;;;6250167;28;20397;-85
2021/07/10 12:09:20;;;;;;;5.18;3.42;;;30.10;64.90;;;;;;6249783;28;20374;-86
2021/07/10 12:12:21;;;;;;;4.23;3.80;;;30.00;66.60;;;;;;6225078;28;20053;-84
2021/07/10 12:15:25;;;;;;;6.20;3.60;;;30.00;67.00;;;;;;6208247;28;20076;-79
2021/07/10 12:18:27;;;;;;;4.75;3.70;;;29.80;63.90;;;;;;6253659;28;20112;-82
2021/07/10 12:21:28;;;;;;;;;;;29.50;64.70;;;;;;6212420;28;20022;-82
2021/07/10 12:24:28;;;;;;;4.10;3.70;;;29.50;66.80;;;;;;6235104;28;19944;-82
2021/07/10 12:27:30;;;;;;;4.10;3.67;;;29.30;65.80;;;;;;6212752;28;20121;-80
2021/07/10 12:30:36;;;;;;;5.45;3.60;;;29.10;66.10;;;;;;6229134;28;20064;-79
2021/07/10 12:33:42;;;;;;;7.97;4.50;;;28.80;66.10;;;;;;6228737;28;20037;-79
2021/07/10 12:36:43;;;;;;;6.10;3.95;;;28.60;65.70;;;;;;6228454;28;20136;-80
2021/07/10 12:39:44;;;;;;;4.18;3.63;;;28.50;67.00;;;;;;6227705;28;20025;-80
2021/07/10 12:42:44;;;;;;;4.30;3.77;;;28.70;67.80;;;;;;6210751;28;20083;-80
2021/07/10 12:45:58;;;;;;;6.10;4.43;;;29.10;68.90;;;;;;6227823;28;20040;-79
2021/07/10 12:48:58;;;;;;;7.93;3.90;;;29.50;67.00;;;;;;6212151;28;20029;-80
2021/07/10 12:51:59;;;;;;;6.27;4.10;;;29.50;66.80;;;;;;6227834;28;20786;-80
2021/07/10 12:55:07;;;;;;;4.50;3.70;;;29.50;67.00;;;;;;6210713;28;20042;-80
2021/07/10 12:58:07;;;;;;;4.35;3.47;;;29.70;69.50;;;;;;6245768;28;20068;-80
2021/07/10 13:01:08;;;;;;;5.80;3.90;;;29.70;65.90;;;;;;6211814;28;20494;-80
2021/07/10 13:04:08;;;;;;;4.20;3.27;;;29.00;64.60;;;;;;6228565;28;20379;-80
2021/07/10 13:07:09;;;;;;;4.23;3.63;;;29.50;66.10;;;;;;6228224;28;20041;-79
2021/07/10 13:10:29;;;;;;;4.87;4.20;;;29.50;69.00;;;;;;6227715;28;20052;-81
2021/07/10 13:13:40;;;;;;;7.00;3.75;;;29.50;65.90;;;;;;6246884;28;20107;-80
2021/07/10 13:16:41;;;;;;;6.38;4.32;;;29.40;67.30;;;;;;6270026;28;20029;-80
2021/07/10 13:19:41;;;;;;;5.50;3.63;;;29.40;67.80;;;;;;6269269;28;20482;-80
2021/07/10 13:22:45;;;;;;;5.20;4.10;;;29.10;66.00;;;;;;6285307;28;20398;-81
2021/07/10 13:25:46;;;;;;;6.45;3.78;;;29.00;66.50;;;;;;6284944;28;20471;-80
2021/07/10 13:28:47;;;;;;;4.60;3.80;;;28.70;67.80;;;;;;6268071;28;20032;-80
2021/07/10 13:31:58;;;;;;;4.85;3.72;;;28.30;69.30;;;;;;6252044;28;20451;-79
2021/07/10 13:35:07;;;;;;;5.17;4.10;;;28.80;68.20;;;;;;6268007;28;20045;-79
2021/07/10 13:38:14;;;;;;;5.32;3.55;;;29.00;65.60;;;;;;6285314;28;20033;-78
2021/07/10 13:41:16;;;;;;;4.13;3.72;;;29.10;66.40;;;;;;6249917;28;20033;-83
2021/07/10 13:44:31;;;;;;;7.57;3.90;;;28.90;68.60;;;;;;6268259;28;20072;-84
2021/07/10 13:47:31;;;;;;;11.80;4.55;;;28.70;65.20;;;;;;6253194;28;20032;-85
2021/07/10 13:50:32;;;;;;;6.00;4.03;;;28.20;67.00;;;;;;6252334;28;20033;-81
2021/07/10 13:53:33;;;;;;;5.00;4.00;;;28.60;67.70;;;;;;6269527;28;20048;-80
2021/07/10 13:56:33;;;;;;;4.83;3.93;;;28.40;68.10;;;;;;6269425;28;20033;-81
2021/07/10 13:59:34;;;;;;;4.87;3.70;;;28.40;67.90;;;;;;6268426;28;20147;-81
2021/07/10 14:02:36;;;;;;;4.13;3.67;;;28.50;67.30;;;;;;6269619;28;20021;-82
2021/07/10 14:05:41;;;;;;;4.95;3.70;;;28.40;64.10;;;;;;6284972;28;20029;-81
2021/07/10 14:08:42;;;;;;;4.63;4.22;;;28.30;71.20;;;;;;6267830;28;20029;-82
2021/07/10 14:11:42;;;;;;;6.93;4.20;;;28.30;66.80;;;;;;6251315;28;20048;-82
2021/07/10 14:14:43;;;;;;;4.23;3.73;;;28.30;68.30;;;;;;6218124;28;20052;-80
2021/07/10 14:17:43;;;;;;;4.67;4.17;;;28.20;71.00;;;;;;6251260;28;20111;-81
2021/07/10 14:20:46;;;;;;;5.33;4.10;;;28.40;75.70;;;;;;6218231;28;20029;-81
2021/07/10 14:23:47;;;;;;;4.30;3.90;;;28.50;70.60;;;;;;6235022;28;20036;-81
2021/07/10 14:26:47;;;;;;;6.13;3.90;;;28.60;76.00;;;;;;6268801;28;20104;-80
2021/07/10 14:29:48;;;;;;;4.77;3.77;;;28.60;73.00;;;;;;6250825;28;20037;-81
2021/07/10 14:32:51;;;;;;;3.80;3.50;;;28.50;73.70;;;;;;6235085;28;20021;-80
2021/07/10 14:35:51;;;;;;;5.18;4.15;;;28.50;68.60;;;;;;6267693;28;20479;-81
2021/07/10 14:38:52;;;;;;;6.87;4.00;;;28.40;70.10;;;;;;6250537;28;20056;-80
2021/07/10 14:41:53;;;;;;;5.63;4.27;;;28.40;70.40;;;;;;6233941;28;20127;-80
2021/07/10 14:44:53;;;;;;;4.37;3.97;;;28.20;68.20;;;;;;6250745;28;20451;-82
2021/07/10 14:47:54;;;;;;;5.33;3.90;;;28.30;70.30;;;;;;6250439;28;20033;-83
2021/07/10 14:50:55;;;;;;;4.80;3.92;;;28.30;67.10;;;;;;6250472;28;20029;-79
2021/07/10 14:53:56;;;;;;;4.30;3.90;;;28.10;70.60;;;;;;6250351;28;20469;-78
2021/07/10 14:56:56;;;;;;;5.57;4.00;;;27.90;69.40;;;;;;6250382;28;20029;-83
2021/07/10 14:59:57;;;;;;;4.53;3.90;;;27.70;70.90;;;;;;6233768;28;20083;-83
2021/07/10 15:02:58;;;;;;;5.07;4.13;;;27.60;71.10;;;;;;6233656;28;20417;-82
2021/07/10 15:05:58;;;;;;;3.97;3.67;;;27.70;70.20;;;;;;6234001;28;20119;-82
2021/07/10 15:08:59;;;;;;;5.97;4.27;;;28.00;72.20;;;;;;6248980;28;20487;-81
2021/07/10 15:11:59;;;;;;;4.40;4.00;;;28.10;69.00;;;;;;6266815;28;20053;-78
2021/07/10 15:15:02;;;;;;;4.80;3.85;;;28.20;69.60;;;;;;6249435;28;20048;-81
2021/07/10 15:18:03;;;;;;;4.35;3.95;;;28.10;65.80;;;;;;6266272;28;20037;-80
2021/07/10 15:21:04;;;;;;;3.90;3.53;;;27.80;68.70;;;;;;6249692;28;20467;-82
2021/07/10 15:24:05;;;;;;;4.37;3.93;;;27.70;69.50;;;;;;6233150;28;20048;-80
2021/07/10 15:27:06;;;;;;;4.97;4.03;;;27.60;70.80;;;;;;6233379;28;20043;-80
2021/07/10 15:30:07;;;;;;;6.63;4.33;;;27.60;70.80;;;;;;6249743;28;20375;-80
2021/07/10 15:33:08;;;;;;;8.25;4.03;;;27.50;71.80;;;;;;6250136;28;20037;-80
2021/07/10 15:36:08;;;;;;;4.20;3.50;;;27.30;71.40;;;;;;6266628;28;20120;-80
2021/07/10 15:39:09;;;;;;;4.37;3.80;;;27.10;72.00;;;;;;6249784;28;20025;-77
2021/07/10 15:42:09;;;;;;;6.07;3.97;;;27.00;72.50;;;;;;6250186;28;20029;-80
2021/07/10 15:45:11;;;;;;;4.30;3.90;;;27.10;73.30;;;;;;6250053;28;20025;-80
2021/07/10 15:48:11;;;;;;;4.10;3.75;;;27.20;74.00;;;;;;6266674;28;20037;-80
2021/07/10 15:51:12;;;;;;;5.40;3.77;;;27.30;74.50;;;;;;6250020;28;20100;-80
2021/07/10 15:54:13;;;;;;;5.47;4.37;;;27.20;72.60;;;;;;6254483;28;20515;-80
2021/07/10 15:57:13;;;;;;;6.17;4.40;;;27.30;71.80;;;;;;6271087;28;20497;-80